Time;durP1;ratioP1;P1;durP2;ratioP2;P2;SDS_P1;SDS_P2;PMS_P1;PMS_P2;Temp;Humidity;BMP_temperature;BMP_pressure;BME280_temperature;BME280_humidity;BME280_pressure;Samples;Min_cycle;Max_cycle;Signal;HPM_P1;HPM_P2
2022/05/22 00:00:23;;;;;;;7.00;3.92;;;;;;;;;;143738;570;47022;-59
2022/05/22 00:02:51;;;;;;;7.68;3.37;;;;;;;;;;143740;611;46917;-60
2022/05/22 00:05:21;;;;;;;6.12;3.78;;;;;;;;;;143740;580;45020;-60
2022/05/22 00:07:48;;;;;;;5.10;3.60;;;;;;;;;;143744;607;45021;-59
2022/05/22 00:10:15;;;;;;;6.50;3.28;;;;;;;;;;143740;574;47020;-59
2022/05/22 00:12:43;;;;;;;8.32;3.62;;;;;;;;;;143739;600;47012;-59
2022/05/22 00:15:12;;;;;;;5.07;3.47;;;;;;;;;;143743;580;45021;-59
2022/05/22 00:17:40;;;;;;;3.87;3.25;;;;;;;;;;143744;575;45020;-60
2022/05/22 00:20:07;;;;;;;4.82;3.12;;;;;;;;;;143739;579;47020;-59
2022/05/22 00:22:34;;;;;;;9.38;4.30;;;;;;;;;;143737;580;47012;-59
2022/05/22 00:25:01;;;;;;;7.62;3.55;;;;;;;;;;143741;598;45913;-59
2022/05/22 00:27:28;;;;;;;5.03;3.67;;;;;;;;;;143744;621;45020;-59
2022/05/22 00:29:55;;;;;;;6.68;3.80;;;;;;;;;;143738;605;47021;-59
2022/05/22 00:32:22;;;;;;;7.20;3.97;;;;;;;;;;143737;571;47012;-59
2022/05/22 00:34:49;;;;;;;8.18;3.75;;;;;;;;;;143741;588;45914;-59
2022/05/22 00:37:16;;;;;;;4.93;3.37;;;;;;;;;;143743;599;46043;-60
2022/05/22 00:39:43;;;;;;;5.65;3.37;;;;;;;;;;143739;585;47020;-59
2022/05/22 00:42:28;;;;;;;7.60;4.70;;;;;;;;;;143739;620;47012;-59
2022/05/22 00:44:56;;;;;;;9.20;4.00;;;;;;;;;;143743;581;45019;-59
2022/05/22 00:47:23;;;;;;;7.18;3.67;;;;;;;;;;143744;569;46022;-59
2022/05/22 00:49:51;;;;;;;7.57;3.83;;;;;;;;;;143736;564;47020;-59
2022/05/22 00:52:27;;;;;;;8.30;3.83;;;;;;;;;;143740;571;46013;-59
2022/05/22 00:55:16;;;;;;;9.50;3.85;;;;;;;;;;143740;605;45018;-59
2022/05/22 00:57:52;;;;;;;8.25;3.95;;;;;;;;;;143744;632;46022;-59
2022/05/22 01:00:27;;;;;;;13.75;3.90;;;;;;;;;;143739;601;47018;-59
2022/05/22 01:05:45;;;;;;;5.07;3.72;;;;;;;;;;143742;620;46019;-59
2022/05/22 01:08:12;;;;;;;4.68;3.62;;;;;;;;;;143741;567;46012;-59
2022/05/22 01:11:08;;;;;;;6.75;3.72;;;;;;;;;;143739;585;47018;-59
2022/05/22 01:13:36;;;;;;;;;;;;;;;;;;143744;978;46012;-59
2022/05/22 01:16:04;;;;;;;7.45;3.47;;;;;;;;;;143747;596;45019;-59
2022/05/22 01:18:45;;;;;;;3.97;3.08;;;;;;;;;;143745;571;45022;-59
2022/05/22 01:21:15;;;;;;;5.47;3.72;;;;;;;;;;143737;576;47019;-59
2022/05/22 01:23:42;;;;;;;5.40;3.62;;;;;;;;;;143737;593;47012;-59
2022/05/22 01:26:10;;;;;;;8.55;4.78;;;;;;;;;;143738;586;45913;-59
2022/05/22 01:28:37;;;;;;;7.32;4.35;;;;;;;;;;143745;564;46022;-59
2022/05/22 01:31:04;;;;;;;7.55;4.10;;;;;;;;;;143739;620;47018;-59
2022/05/22 01:33:34;;;;;;;7.10;4.03;;;;;;;;;;143739;581;47012;-59
2022/05/22 01:36:03;;;;;;;5.05;3.33;;;;;;;;;;143743;579;45019;-59
2022/05/22 01:38:30;;;;;;;5.80;3.65;;;;;;;;;;143745;564;45023;-59
2022/05/22 01:40:57;;;;;;;5.78;4.03;;;;;;;;;;143739;571;47020;-59
2022/05/22 01:43:24;;;;;;;7.65;3.92;;;;;;;;;;143738;570;47013;-59
2022/05/22 01:45:54;;;;;;;15.35;4.72;;;;;;;;;;143742;585;45019;-59
2022/05/22 01:48:22;;;;;;;8.95;5.22;;;;;;;;;;143744;581;46022;-59
2022/05/22 01:50:50;;;;;;;9.60;5.30;;;;;;;;;;143741;617;47020;-59
2022/05/22 01:53:19;;;;;;;11.20;6.37;;;;;;;;;;143738;630;47012;-59
2022/05/22 01:55:47;;;;;;;15.40;5.30;;;;;;;;;;143743;585;45018;-59
2022/05/22 01:58:14;;;;;;;7.35;4.90;;;;;;;;;;143744;601;45022;-59
2022/05/22 02:00:41;;;;;;;10.88;5.10;;;;;;;;;;143739;645;47021;-59
2022/05/22 02:03:08;;;;;;;9.20;4.75;;;;;;;;;;143738;575;47012;-59
2022/05/22 02:05:36;;;;;;;7.30;5.00;;;;;;;;;;143744;628;45018;-59
2022/05/22 02:10:48;;;;;;;;;;;;;;;;;;143749;980;45908;-59
2022/05/22 02:13:18;;;;;;;8.18;5.32;;;;;;;;;;143746;597;46013;-59
2022/05/22 02:15:45;;;;;;;9.35;5.53;;;;;;;;;;143743;600;45019;-59
2022/05/22 02:18:12;;;;;;;11.88;5.68;;;;;;;;;;143745;622;45022;-59
2022/05/22 02:20:40;;;;;;;11.00;6.53;;;;;;;;;;143740;615;47019;-59
2022/05/22 02:23:07;;;;;;;10.77;5.70;;;;;;;;;;143741;574;46012;-59
2022/05/22 02:25:37;;;;;;;11.55;6.00;;;;;;;;;;143743;569;45018;-59
2022/05/22 02:28:06;;;;;;;11.82;5.57;;;;;;;;;;143743;575;46022;-59
2022/05/22 02:30:37;;;;;;;10.10;6.03;;;;;;;;;;143739;601;47021;-59
2022/05/22 02:33:05;;;;;;;8.68;5.45;;;;;;;;;;143735;605;50012;-59
2022/05/22 02:35:32;;;;;;;12.40;5.85;;;;;;;;;;143741;566;45019;-59
2022/05/22 02:37:59;;;;;;;10.02;5.80;;;;;;;;;;143744;570;46023;-59
2022/05/22 02:40:29;;;;;;;12.75;6.03;;;;;;;;;;143738;569;47020;-59
2022/05/22 02:42:56;;;;;;;8.82;5.57;;;;;;;;;;143740;636;47013;-59
2022/05/22 02:45:26;;;;;;;11.50;5.68;;;;;;;;;;143744;570;45019;-59
2022/05/22 02:47:53;;;;;;;13.10;6.30;;;;;;;;;;143745;574;46022;-59
2022/05/22 02:50:23;;;;;;;9.93;5.68;;;;;;;;;;143741;619;47019;-59
2022/05/22 02:52:50;;;;;;;10.57;5.68;;;;;;;;;;143742;585;46013;-59
2022/05/22 02:55:19;;;;;;;8.20;5.80;;;;;;;;;;143742;604;45018;-59
2022/05/22 02:57:46;;;;;;;9.65;5.97;;;;;;;;;;143745;579;46022;-59
2022/05/22 03:00:26;;;;;;;11.73;6.55;;;;;;;;;;143741;630;47019;-59
2022/05/22 03:02:54;;;;;;;10.57;6.15;;;;;;;;;;143740;596;47012;-58
2022/05/22 03:05:21;;;;;;;10.90;6.03;;;;;;;;;;143741;566;45019;-59
2022/05/22 03:07:49;;;;;;;12.68;7.03;;;;;;;;;;143743;603;45023;-59
2022/05/22 03:10:19;;;;;;;13.57;5.93;;;;;;;;;;143739;646;47018;-59
2022/05/22 03:12:46;;;;;;;12.23;6.20;;;;;;;;;;143741;580;46012;-59
2022/05/22 03:15:14;;;;;;;10.10;5.10;;;;;;;;;;143743;569;45019;-59
2022/05/22 03:17:41;;;;;;;11.38;5.50;;;;;;;;;;143744;632;45022;-59
2022/05/22 03:20:09;;;;;;;14.30;6.07;;;;;;;;;;143740;605;47019;-59
2022/05/22 03:22:37;;;;;;;11.05;5.72;;;;;;;;;;143741;634;46012;-59
2022/05/22 03:25:06;;;;;;;10.27;5.12;;;;;;;;;;143740;579;45018;-59
2022/05/22 03:27:33;;;;;;;11.02;4.85;;;;;;;;;;143744;643;46022;-59
2022/05/22 03:30:00;;;;;;;9.02;5.43;;;;;;;;;;143740;619;47021;-59
2022/05/22 03:32:28;;;;;;;7.47;4.65;;;;;;;;;;143740;571;47012;-59
2022/05/22 03:34:55;;;;;;;7.55;4.57;;;;;;;;;;143745;610;45019;-59
2022/05/22 03:37:24;;;;;;;8.13;4.90;;;;;;;;;;143745;645;46023;-59
2022/05/22 03:39:52;;;;;;;8.30;4.40;;;;;;;;;;143740;619;47018;-59
2022/05/22 03:42:19;;;;;;;10.35;4.30;;;;;;;;;;143741;648;46013;-59
2022/05/22 03:44:46;;;;;;;6.60;3.80;;;;;;;;;;143746;632;45019;-59
2022/05/22 03:47:13;;;;;;;9.60;4.80;;;;;;;;;;143748;564;45022;-59
2022/05/22 03:49:40;;;;;;;7.68;3.90;;;;;;;;;;143740;622;47020;-59
2022/05/22 03:52:07;;;;;;;6.75;4.03;;;;;;;;;;143739;564;47012;-59
2022/05/22 03:54:34;;;;;;;8.45;4.78;;;;;;;;;;143741;565;45912;-59
2022/05/22 03:57:01;;;;;;;10.75;5.28;;;;;;;;;;143745;641;45022;-59
2022/05/22 03:59:29;;;;;;;7.97;5.15;;;;;;;;;;143742;569;47019;-58
2022/05/22 04:01:56;;;;;;;8.88;5.03;;;;;;;;;;143742;610;46012;-59
2022/05/22 04:04:23;;;;;;;7.90;4.87;;;;;;;;;;143742;602;45912;-59
2022/05/22 04:06:51;;;;;;;7.57;5.32;;;;;;;;;;143745;625;45023;-58
2022/05/22 04:09:18;;;;;;;13.20;5.72;;;;;;;;;;143742;623;47020;-58
2022/05/22 04:11:45;;;;;;;11.43;5.87;;;;;;;;;;143742;585;47012;-58
2022/05/22 04:14:12;;;;;;;11.85;5.82;;;;;;;;;;143742;585;45912;-59
2022/05/22 04:16:39;;;;;;;13.50;5.65;;;;;;;;;;143747;564;46022;-59
2022/05/22 04:19:06;;;;;;;13.13;5.85;;;;;;;;;;143741;575;47018;-58
2022/05/22 04:21:33;;;;;;;12.07;6.68;;;;;;;;;;143740;625;47012;-58
2022/05/22 04:26:44;;;;;;;11.93;6.47;;;;;;;;;;143746;659;45023;-58
2022/05/22 04:29:12;;;;;;;6.35;4.72;;;;;;;;;;143742;575;47018;-58
2022/05/22 04:31:39;;;;;;;8.02;5.12;;;;;;;;;;143742;578;46012;-58
2022/05/22 04:34:06;;;;;;;9.25;5.30;;;;;;;;;;143741;613;46015;-58
2022/05/22 04:36:34;;;;;;;11.68;5.70;;;;;;;;;;143745;610;45023;-58
2022/05/22 04:39:00;;;;;;;9.40;5.70;;;;;;;;;;143740;611;47018;-59
2022/05/22 04:41:28;;;;;;;6.87;4.68;;;;;;;;;;143740;579;47012;-58
2022/05/22 04:43:55;;;;;;;10.25;4.87;;;;;;;;;;143743;847;45019;-58
2022/05/22 04:46:22;;;;;;;13.30;5.50;;;;;;;;;;143745;631;46022;-58
2022/05/22 04:48:49;;;;;;;10.70;5.00;;;;;;;;;;143742;668;47018;-58
2022/05/22 04:51:16;;;;;;;11.75;5.28;;;;;;;;;;143741;612;47013;-58
2022/05/22 04:53:43;;;;;;;12.35;5.07;;;;;;;;;;143743;640;45018;-58
2022/05/22 04:56:10;;;;;;;8.63;5.20;;;;;;;;;;143746;592;45022;-58
2022/05/22 04:58:37;;;;;;;9.55;5.07;;;;;;;;;;143741;585;47019;-59
2022/05/22 05:01:08;;;;;;;9.68;5.00;;;;;;;;;;143740;605;47012;-58
2022/05/22 05:03:35;;;;;;;9.13;4.57;;;;;;;;;;143745;583;45018;-58
2022/05/22 05:06:03;;;;;;;12.80;5.80;;;;;;;;;;143745;682;45023;-59
2022/05/22 05:08:30;;;;;;;9.48;5.40;;;;;;;;;;143741;690;47020;-59
2022/05/22 05:11:01;;;;;;;9.85;5.30;;;;;;;;;;143742;586;46012;-59
2022/05/22 05:13:29;;;;;;;9.38;5.65;;;;;;;;;;143742;605;45019;-59
2022/05/22 05:16:14;;;;;;;8.70;4.65;;;;;;;;;;143746;633;45022;-59
2022/05/22 05:18:40;;;;;;;;;;;;;;;;;;143746;982;47020;-59
2022/05/22 05:21:13;;;;;;;7.15;4.70;;;;;;;;;;143742;572;47012;-59
2022/05/22 05:23:41;;;;;;;9.73;5.28;;;;;;;;;;143742;570;46018;-58
2022/05/22 05:26:08;;;;;;;7.70;4.35;;;;;;;;;;143747;576;45022;-58
2022/05/22 05:28:35;;;;;;;12.15;4.47;;;;;;;;;;143741;637;47020;-58
2022/05/22 05:31:03;;;;;;;7.75;4.25;;;;;;;;;;143741;612;47013;-59
2022/05/22 05:33:34;;;;;;;6.45;4.97;;;;;;;;;;143742;609;45914;-58
2022/05/22 05:36:02;;;;;;;6.07;4.60;;;;;;;;;;143744;600;46023;-59
2022/05/22 05:38:30;;;;;;;9.50;5.15;;;;;;;;;;143741;577;47018;-57
2022/05/22 05:40:57;;;;;;;9.55;4.82;;;;;;;;;;143742;590;46012;-58
2022/05/22 05:43:24;;;;;;;6.47;4.43;;;;;;;;;;143745;613;45019;-59
2022/05/22 05:45:51;;;;;;;7.45;4.80;;;;;;;;;;143745;656;45022;-59
2022/05/22 05:48:18;;;;;;;7.12;4.55;;;;;;;;;;143742;601;47018;-58
2022/05/22 05:50:45;;;;;;;6.47;4.50;;;;;;;;;;143740;593;47012;-58
2022/05/22 05:53:12;;;;;;;7.62;4.03;;;;;;;;;;143742;586;45913;-58
2022/05/22 05:55:40;;;;;;;6.70;4.30;;;;;;;;;;143746;574;45022;-58
2022/05/22 05:58:07;;;;;;;7.82;4.85;;;;;;;;;;143742;597;47020;-58
2022/05/22 06:00:34;;;;;;;9.75;4.57;;;;;;;;;;143742;667;46012;-58
2022/05/22 06:03:01;;;;;;;6.30;4.20;;;;;;;;;;143742;697;45914;-57
2022/05/22 06:05:28;;;;;;;7.43;4.07;;;;;;;;;;143744;591;46023;-57
2022/05/22 06:07:55;;;;;;;6.05;4.00;;;;;;;;;;143739;599;47020;-57
2022/05/22 06:10:22;;;;;;;7.68;4.47;;;;;;;;;;143740;573;47012;-57
2022/05/22 06:12:49;;;;;;;8.10;4.53;;;;;;;;;;143744;692;45914;-56
2022/05/22 06:15:17;;;;;;;10.02;4.90;;;;;;;;;;143745;593;45022;-57
2022/05/22 06:17:46;;;;;;;8.38;4.65;;;;;;;;;;143742;632;47020;-57
2022/05/22 06:20:18;;;;;;;11.27;4.93;;;;;;;;;;143740;741;47013;-57
2022/05/22 06:22:46;;;;;;;6.87;4.12;;;;;;;;;;143743;594;45018;-57
2022/05/22 06:25:15;;;;;;;8.32;4.00;;;;;;;;;;143747;596;46022;-57
2022/05/22 06:27:43;;;;;;;9.60;4.53;;;;;;;;;;143741;592;47019;-57
2022/05/22 06:30:12;;;;;;;7.60;4.43;;;;;;;;;;143741;576;47012;-57
2022/05/22 06:32:41;;;;;;;9.35;4.62;;;;;;;;;;143744;585;45913;-57
2022/05/22 06:35:11;;;;;;;8.02;4.22;;;;;;;;;;143747;595;46022;-57
2022/05/22 06:37:38;;;;;;;7.75;3.80;;;;;;;;;;143743;569;47018;-57
2022/05/22 06:40:06;;;;;;;10.60;4.22;;;;;;;;;;143741;589;47012;-57
2022/05/22 06:42:42;;;;;;;11.50;4.15;;;;;;;;;;143745;621;45019;-57
2022/05/22 06:45:13;;;;;;;7.75;3.90;;;;;;;;;;143744;680;46022;-57
2022/05/22 06:47:42;;;;;;;5.03;3.17;;;;;;;;;;143740;642;47020;-57
2022/05/22 06:50:12;;;;;;;6.32;3.55;;;;;;;;;;143740;646;47012;-56
2022/05/22 06:52:40;;;;;;;4.28;3.47;;;;;;;;;;143743;578;46913;-56
2022/05/22 06:55:07;;;;;;;5.80;3.83;;;;;;;;;;143746;590;45022;-57
2022/05/22 06:57:36;;;;;;;9.10;3.25;;;;;;;;;;143744;611;46012;-57
2022/05/22 07:00:06;;;;;;;7.80;3.45;;;;;;;;;;143742;573;46012;-57
2022/05/22 07:02:36;;;;;;;5.93;3.22;;;;;;;;;;143745;690;45018;-57
2022/05/22 07:05:03;;;;;;;4.85;3.35;;;;;;;;;;143745;578;46011;-57
2022/05/22 07:07:31;;;;;;;6.35;3.37;;;;;;;;;;143742;610;47018;-57
2022/05/22 07:09:58;;;;;;;5.70;3.50;;;;;;;;;;143740;586;47012;-57
2022/05/22 07:12:25;;;;;;;6.32;2.97;;;;;;;;;;143741;570;46018;-57
2022/05/22 07:14:57;;;;;;;5.82;3.42;;;;;;;;;;143745;564;45026;-57
2022/05/22 07:17:24;;;;;;;14.20;4.97;;;;;;;;;;143741;609;47018;-57
2022/05/22 07:19:52;;;;;;;9.93;4.60;;;;;;;;;;143743;576;45920;-57
2022/05/22 07:22:19;;;;;;;11.07;4.50;;;;;;;;;;143743;591;45018;-58
2022/05/22 07:24:47;;;;;;;10.45;4.22;;;;;;;;;;143746;612;46022;-57
2022/05/22 07:27:14;;;;;;;8.35;4.03;;;;;;;;;;143742;587;47019;-58
2022/05/22 07:29:41;;;;;;;12.50;4.37;;;;;;;;;;143741;606;47012;-58
2022/05/22 07:32:09;;;;;;;11.27;4.47;;;;;;;;;;143741;585;45018;-58
2022/05/22 07:34:38;;;;;;;8.55;4.40;;;;;;;;;;143743;566;46023;-58
2022/05/22 07:37:08;;;;;;;6.15;3.70;;;;;;;;;;143742;594;47021;-58
2022/05/22 07:39:35;;;;;;;7.32;3.42;;;;;;;;;;143742;572;46014;-58
2022/05/22 07:42:02;;;;;;;7.10;4.20;;;;;;;;;;143744;595;45914;-58
2022/05/22 07:44:29;;;;;;;5.62;3.50;;;;;;;;;;143746;623;46022;-57
2022/05/22 07:46:57;;;;;;;10.15;3.97;;;;;;;;;;143742;606;47018;-57
2022/05/22 07:52:10;;;;;;;14.50;3.92;;;;;;;;;;143745;596;45020;-58
2022/05/22 07:54:39;;;;;;;4.70;3.62;;;;;;;;;;143747;657;46022;-58
2022/05/22 07:57:07;;;;;;;5.97;3.60;;;;;;;;;;143742;564;47020;-57
2022/05/22 07:59:36;;;;;;;4.45;3.50;;;;;;;;;;143741;612;47012;-58
2022/05/22 08:02:05;;;;;;;6.25;3.67;;;;;;;;;;143741;577;45912;-58
2022/05/22 08:04:32;;;;;;;6.10;3.60;;;;;;;;;;143746;608;46023;-58
2022/05/22 08:06:59;;;;;;;8.88;3.83;;;;;;;;;;143741;597;47018;-57
2022/05/22 08:09:26;;;;;;;14.07;4.53;;;;;;;;;;143739;586;47010;-58
2022/05/22 08:11:54;;;;;;;7.30;4.00;;;;;;;;;;143741;607;45019;-58
2022/05/22 08:14:20;;;;;;;8.43;3.45;;;;;;;;;;143743;597;46022;-58
2022/05/22 08:16:48;;;;;;;13.60;3.87;;;;;;;;;;143738;584;47020;-57
2022/05/22 08:19:15;;;;;;;5.30;3.50;;;;;;;;;;143739;583;47010;-58
2022/05/22 08:21:42;;;;;;;4.03;3.00;;;;;;;;;;143742;588;45018;-58
2022/05/22 08:24:09;;;;;;;8.60;3.53;;;;;;;;;;143741;565;47022;-58
2022/05/22 08:26:37;;;;;;;6.03;3.55;;;;;;;;;;143740;583;47019;-58
2022/05/22 08:29:04;;;;;;;3.80;3.20;;;;;;;;;;143738;576;47010;-57
2022/05/22 08:31:31;;;;;;;9.18;3.47;;;;;;;;;;143741;571;45018;-58
2022/05/22 08:33:58;;;;;;;5.68;2.87;;;;;;;;;;143743;589;45023;-57
2022/05/22 08:36:25;;;;;;;5.45;2.90;;;;;;;;;;143740;588;47018;-57
2022/05/22 08:38:52;;;;;;;5.50;3.03;;;;;;;;;;143739;569;47010;-58
2022/05/22 08:41:31;;;;;;;7.37;3.12;;;;;;;;;;143741;571;46910;-58
2022/05/22 08:44:19;;;;;;;5.82;3.62;;;;;;;;;;143744;570;46023;-58
2022/05/22 08:47:13;;;;;;;7.72;3.87;;;;;;;;;;143739;604;47020;-58
2022/05/22 08:49:55;;;;;;;6.55;3.58;;;;;;;;;;143739;570;47011;-58
2022/05/22 08:52:46;;;;;;;6.28;3.58;;;;;;;;;;143741;578;45018;-59
2022/05/22 08:55:16;;;;;;;7.80;3.72;;;;;;;;;;143744;574;46022;-58
2022/05/22 09:00:56;;;;;;;8.25;3.80;;;;;;;;;;143742;673;45918;-59
2022/05/22 09:03:30;;;;;;;4.07;3.20;;;;;;;;;;143742;735;45021;-58
2022/05/22 09:06:02;;;;;;;6.55;3.65;;;;;;;;;;143743;695;46020;-59
2022/05/22 09:08:41;;;;;;;6.20;3.37;;;;;;;;;;143741;624;47018;-58
2022/05/22 09:11:30;;;;;;;7.53;3.97;;;;;;;;;;143739;572;46011;-59
2022/05/22 09:14:10;;;;;;;6.57;4.28;;;;;;;;;;143741;575;45018;-58
2022/05/22 09:17:02;;;;;;;6.07;3.50;;;;;;;;;;143745;594;46022;-59
2022/05/22 09:19:46;;;;;;;8.80;3.53;;;;;;;;;;143740;580;47020;-59
2022/05/22 09:22:28;;;;;;;6.25;3.75;;;;;;;;;;143740;585;46010;-59
2022/05/22 09:25:38;;;;;;;7.70;3.60;;;;;;;;;;143743;569;45018;-59
2022/05/22 09:28:45;;;;;;;5.22;3.45;;;;;;;;;;143744;577;45023;-59
2022/05/22 09:31:43;;;;;;;7.25;3.78;;;;;;;;;;143740;588;47020;-59
2022/05/22 09:34:36;;;;;;;10.13;3.95;;;;;;;;;;143738;580;47010;-59
2022/05/22 09:37:32;;;;;;;11.93;3.90;;;;;;;;;;143742;601;45020;-59
2022/05/22 09:40:31;;;;;;;4.68;3.35;;;;;;;;;;143745;594;45024;-59
2022/05/22 09:43:46;;;;;;;10.02;3.65;;;;;;;;;;143739;565;47021;-59
2022/05/22 09:46:39;;;;;;;7.45;3.80;;;;;;;;;;143739;564;46918;-59
2022/05/22 09:49:54;;;;;;;7.35;3.50;;;;;;;;;;143740;566;45910;-59
2022/05/22 09:53:21;;;;;;;9.30;4.30;;;;;;;;;;143744;597;45022;-61
2022/05/22 09:55:52;;;;;;;7.55;3.80;;;;;;;;;;143739;606;47020;-59
2022/05/22 09:58:51;;;;;;;4.82;3.33;;;;;;;;;;143739;595;47010;-59
2022/05/22 10:01:31;;;;;;;12.00;4.18;;;;;;;;;;143742;657;45020;-59
2022/05/22 10:04:32;;;;;;;8.45;4.03;;;;;;;;;;143743;701;45023;-59
2022/05/22 10:07:36;;;;;;;9.63;4.20;;;;;;;;;;143740;581;47018;-60
2022/05/22 10:10:16;;;;;;;7.07;3.65;;;;;;;;;;143739;604;47010;-60
2022/05/22 10:13:24;;;;;;;6.22;3.60;;;;;;;;;;143742;565;45021;-60
2022/05/22 10:16:35;;;;;;;10.02;4.47;;;;;;;;;;143745;573;46020;-60
2022/05/22 10:19:42;;;;;;;7.93;3.67;;;;;;;;;;143741;779;47019;-59
2022/05/22 10:22:40;;;;;;;9.05;4.35;;;;;;;;;;143739;686;46045;-59
2022/05/22 10:25:29;;;;;;;5.70;3.60;;;;;;;;;;143742;618;45910;-59
2022/05/22 10:28:22;;;;;;;5.43;3.72;;;;;;;;;;143745;579;46022;-59
2022/05/22 10:30:58;;;;;;;8.33;4.47;;;;;;;;;;143740;633;47022;-58
2022/05/22 10:33:34;;;;;;;7.60;4.43;;;;;;;;;;143740;567;47010;-59
2022/05/22 10:36:23;;;;;;;8.82;4.43;;;;;;;;;;143742;564;45018;-58
2022/05/22 10:39:08;;;;;;;7.47;3.85;;;;;;;;;;143745;585;45022;-58
2022/05/22 10:44:40;;;;;;;6.15;3.80;;;;;;;;;;143739;569;47010;-58
2022/05/22 10:47:07;;;;;;;5.62;3.62;;;;;;;;;;143740;569;45924;-58
2022/05/22 10:49:43;;;;;;;9.68;4.53;;;;;;;;;;143743;651;46012;-58
2022/05/22 10:52:22;;;;;;;6.00;3.90;;;;;;;;;;143740;671;47020;-59
2022/05/22 10:54:53;;;;;;;8.88;4.00;;;;;;;;;;143741;579;46011;-58
2022/05/22 10:57:23;;;;;;;6.35;4.05;;;;;;;;;;143740;565;45911;-58
2022/05/22 10:59:51;;;;;;;8.75;4.40;;;;;;;;;;143745;624;45022;-58
2022/05/22 11:02:32;;;;;;;5.68;3.87;;;;;;;;;;143740;677;47020;-59
2022/05/22 11:05:00;;;;;;;5.78;3.75;;;;;;;;;;143740;592;46010;-59
2022/05/22 11:07:30;;;;;;;10.57;4.47;;;;;;;;;;143741;620;45018;-59
2022/05/22 11:10:29;;;;;;;7.28;4.30;;;;;;;;;;143744;655;46022;-59
2022/05/22 11:13:12;;;;;;;6.97;4.28;;;;;;;;;;143740;679;47046;-59
2022/05/22 11:15:42;;;;;;;5.43;3.67;;;;;;;;;;143740;656;46010;-59
2022/05/22 11:18:27;;;;;;;8.43;3.90;;;;;;;;;;143738;643;46019;-58
2022/05/22 11:21:30;;;;;;;6.87;3.90;;;;;;;;;;143744;611;45022;-59
2022/05/22 11:24:42;;;;;;;6.80;3.90;;;;;;;;;;143740;624;47022;-59
2022/05/22 11:27:46;;;;;;;5.70;3.70;;;;;;;;;;143739;603;46010;-59
2022/05/22 11:30:42;;;;;;;8.27;4.30;;;;;;;;;;143742;565;45018;-59
2022/05/22 11:33:34;;;;;;;11.65;4.10;;;;;;;;;;143745;567;45023;-59
2022/05/22 11:36:29;;;;;;;5.43;3.62;;;;;;;;;;143740;592;47018;-59
2022/05/22 11:39:33;;;;;;;4.70;3.22;;;;;;;;;;143740;619;46026;-59
2022/05/22 11:42:16;;;;;;;8.15;3.70;;;;;;;;;;143741;640;45020;-59
2022/05/22 11:45:06;;;;;;;7.78;3.45;;;;;;;;;;143745;830;46022;-58
2022/05/22 11:48:11;;;;;;;13.10;3.80;;;;;;;;;;143738;630;47028;-59
2022/05/22 11:50:59;;;;;;;5.12;3.72;;;;;;;;;;143737;599;47010;-58
2022/05/22 11:54:03;;;;;;;5.97;3.70;;;;;;;;;;143742;632;45912;-58
2022/05/22 11:57:09;;;;;;;7.87;3.42;;;;;;;;;;143745;670;45023;-58
2022/05/22 12:00:05;;;;;;;5.28;3.53;;;;;;;;;;143738;692;47020;-59
2022/05/22 12:03:00;;;;;;;5.35;3.40;;;;;;;;;;143739;565;47013;-58
2022/05/22 12:05:52;;;;;;;6.53;3.80;;;;;;;;;;143741;620;45020;-59
2022/05/22 12:08:57;;;;;;;6.78;4.00;;;;;;;;;;143744;569;46020;-59
2022/05/22 12:11:56;;;;;;;5.78;3.90;;;;;;;;;;143740;675;47023;-58
2022/05/22 12:14:54;;;;;;;7.15;4.00;;;;;;;;;;143739;582;46020;-59
2022/05/22 12:17:33;;;;;;;8.23;3.65;;;;;;;;;;143741;603;45913;-59
2022/05/22 12:20:25;;;;;;;8.27;4.68;;;;;;;;;;143745;619;46020;-59
2022/05/22 12:23:09;;;;;;;6.15;3.80;;;;;;;;;;143739;569;47020;-58
2022/05/22 12:25:44;;;;;;;7.20;3.70;;;;;;;;;;143741;598;46013;-58
2022/05/22 12:28:42;;;;;;;6.22;3.40;;;;;;;;;;143744;666;45020;-58
2022/05/22 12:31:29;;;;;;;6.05;3.12;;;;;;;;;;143745;629;45020;-58
2022/05/22 12:34:06;;;;;;;5.18;3.97;;;;;;;;;;143740;564;47023;-58
2022/05/22 12:36:34;;;;;;;4.68;3.42;;;;;;;;;;143739;565;46012;-58
2022/05/22 12:39:08;;;;;;;8.80;3.80;;;;;;;;;;143741;613;45020;-58
2022/05/22 12:41:52;;;;;;;;;;;;;;;;;;143749;980;46021;-58
2022/05/22 12:44:19;;;;;;;6.65;3.75;;;;;;;;;;143746;580;47022;-58
2022/05/22 12:46:47;;;;;;;13.27;4.82;;;;;;;;;;143738;674;47010;-58
2022/05/22 12:49:26;;;;;;;8.27;4.03;;;;;;;;;;143743;671;45021;-58
2022/05/22 12:52:43;;;;;;;7.25;4.10;;;;;;;;;;143744;775;45020;-59
2022/05/22 12:55:35;;;;;;;5.50;3.37;;;;;;;;;;143739;615;47021;-59
2022/05/22 12:58:05;;;;;;;6.37;3.70;;;;;;;;;;143739;666;46020;-59
2022/05/22 13:00:47;;;;;;;6.37;4.05;;;;;;;;;;143743;625;45020;-59
2022/05/22 13:03:30;;;;;;;3.97;3.35;;;;;;;;;;143745;584;45021;-58
2022/05/22 13:06:06;;;;;;;5.43;4.17;;;;;;;;;;143740;593;47022;-58
2022/05/22 13:08:42;;;;;;;6.07;3.37;;;;;;;;;;143741;594;46010;-58
2022/05/22 13:11:31;;;;;;;4.62;3.37;;;;;;;;;;143743;654;45021;-59
2022/05/22 13:13:59;;;;;;;5.50;3.40;;;;;;;;;;143744;690;45020;-58
2022/05/22 13:16:29;;;;;;;5.12;3.50;;;;;;;;;;143741;602;47020;-58
2022/05/22 13:18:56;;;;;;;5.53;4.00;;;;;;;;;;143739;588;47010;-58
2022/05/22 13:21:37;;;;;;;7.60;3.70;;;;;;;;;;143743;587;46020;-58
2022/05/22 13:24:24;;;;;;;6.12;3.80;;;;;;;;;;143744;573;46020;-57
2022/05/22 13:27:46;;;;;;;6.95;3.25;;;;;;;;;;143736;643;47037;-58
2022/05/22 13:30:29;;;;;;;5.28;3.80;;;;;;;;;;143740;685;46010;-58
2022/05/22 13:33:16;;;;;;;5.53;3.58;;;;;;;;;;143739;566;45019;-58
2022/05/22 13:35:57;;;;;;;6.70;4.05;;;;;;;;;;143745;606;45022;-59
2022/05/22 13:38:24;;;;;;;8.68;3.78;;;;;;;;;;143739;647;47018;-59
2022/05/22 13:41:39;;;;;;;5.60;3.60;;;;;;;;;;143739;638;47010;-59
2022/05/22 13:44:42;;;;;;;6.75;3.87;;;;;;;;;;143741;586;45018;-58
2022/05/22 13:47:55;;;;;;;8.23;3.60;;;;;;;;;;143743;612;45023;-58
2022/05/22 13:54:09;;;;;;;7.80;3.72;;;;;;;;;;143742;661;45918;-58
2022/05/22 13:56:58;;;;;;;5.68;3.95;;;;;;;;;;143742;712;45910;-58
2022/05/22 13:59:35;;;;;;;8.23;4.00;;;;;;;;;;143744;820;46022;-58
2022/05/22 14:02:11;;;;;;;6.22;3.78;;;;;;;;;;143738;704;47019;-58
2022/05/22 14:04:42;;;;;;;5.55;3.83;;;;;;;;;;143739;582;46010;-58
2022/05/22 14:07:30;;;;;;;9.20;4.20;;;;;;;;;;143740;652;46911;-58
2022/05/22 14:09:58;;;;;;;9.13;4.10;;;;;;;;;;143745;656;45023;-58
2022/05/22 14:12:32;;;;;;;7.37;3.65;;;;;;;;;;143738;599;47018;-59
2022/05/22 14:15:35;;;;;;;6.72;3.67;;;;;;;;;;143739;566;47010;-59
2022/05/22 14:18:12;;;;;;;5.65;3.47;;;;;;;;;;143741;577;46016;-58
2022/05/22 14:20:43;;;;;;;7.20;4.10;;;;;;;;;;143746;570;45022;-58
2022/05/22 14:23:23;;;;;;;7.93;4.12;;;;;;;;;;143740;602;47020;-59
2022/05/22 14:25:59;;;;;;;11.43;4.03;;;;;;;;;;143740;616;47010;-59
2022/05/22 14:28:36;;;;;;;5.18;3.95;;;;;;;;;;143742;603;45018;-58
2022/05/22 14:31:04;;;;;;;6.72;3.60;;;;;;;;;;143746;566;45023;-58
2022/05/22 14:33:38;;;;;;;5.80;3.83;;;;;;;;;;143742;566;47018;-58
2022/05/22 14:36:15;;;;;;;7.55;4.12;;;;;;;;;;143740;570;47010;-59
2022/05/22 14:38:45;;;;;;;3.78;3.17;;;;;;;;;;143742;601;45910;-59
2022/05/22 14:41:37;;;;;;;6.95;3.90;;;;;;;;;;143745;597;45023;-58
2022/05/22 14:44:06;;;;;;;6.40;4.50;;;;;;;;;;143741;565;47018;-59
2022/05/22 14:46:53;;;;;;;5.57;3.92;;;;;;;;;;143741;603;46010;-59
2022/05/22 14:49:34;;;;;;;5.50;3.85;;;;;;;;;;143741;566;45909;-58
2022/05/22 14:52:19;;;;;;;4.72;3.90;;;;;;;;;;143745;574;45022;-59
2022/05/22 14:54:58;;;;;;;8.98;4.05;;;;;;;;;;143742;574;47021;-59
2022/05/22 14:57:33;;;;;;;11.63;4.45;;;;;;;;;;143742;684;46010;-59
2022/05/22 15:00:09;;;;;;;27.70;5.55;;;;;;;;;;143741;599;45910;-58
2022/05/22 15:02:50;;;;;;;42.08;7.22;;;;;;;;;;143744;613;45023;-59
2022/05/22 15:05:20;;;;;;;24.25;5.72;;;;;;;;;;143739;564;47018;-58
2022/05/22 15:07:59;;;;;;;13.60;4.10;;;;;;;;;;143739;583;47010;-59
2022/05/22 15:10:38;;;;;;;27.52;5.45;;;;;;;;;;143742;579;45910;-58
2022/05/22 15:13:24;;;;;;;8.60;4.55;;;;;;;;;;143746;600;45022;-58
2022/05/22 15:15:52;;;;;;;9.48;4.28;;;;;;;;;;143742;674;46020;-58
2022/05/22 15:19:48;;;;;;;6.05;4.43;;;;;;;;;;143739;600;46022;-58
2022/05/22 15:21:15;;;;;;;12.25;5.85;;;;;;;;;;143743;692;45018;-59
2022/05/22 15:26:30;;;;;;;22.75;5.00;;;;;;;;;;143741;611;47012;-58
2022/05/22 15:29:07;;;;;;;6.55;3.92;;;;;;;;;;143741;636;47010;-58
2022/05/22 15:31:34;;;;;;;6.72;4.12;;;;;;;;;;143743;585;45022;-58
2022/05/22 15:34:32;;;;;;;6.82;3.87;;;;;;;;;;143744;574;46022;-58
2022/05/22 15:37:19;;;;;;;5.70;4.20;;;;;;;;;;143741;565;47022;-58
2022/05/22 15:39:46;;;;;;;6.00;4.07;;;;;;;;;;143738;616;47010;-58
2022/05/22 15:42:19;;;;;;;4.60;4.00;;;;;;;;;;143741;577;45911;-58
2022/05/22 15:45:12;;;;;;;4.75;3.62;;;;;;;;;;143745;615;46022;-58
2022/05/22 15:47:40;;;;;;;7.47;3.78;;;;;;;;;;143740;573;47018;-58
2022/05/22 15:53:04;;;;;;;12.35;4.55;;;;;;;;;;143743;580;46019;-58
2022/05/22 15:55:33;;;;;;;17.35;4.60;;;;;;;;;;143746;572;45023;-58